Time;durP1;ratioP1;P1;durP2;ratioP2;P2;SDS_P1;SDS_P2;PMS_P1;PMS_P2;Temp;Humidity;BMP_temperature;BMP_pressure;BME280_temperature;BME280_humidity;BME280_pressure;Samples;Min_cycle;Max_cycle;Signal;HPM_P1;HPM_P2
2021/11/13 00:00:03;;;;;;;994.40;928.05;;;;;;;5.47;69.14;101077.59;689164;28;22300;-70
2021/11/13 00:00:26;;;;;;;1019.72;952.25;;;;;;;5.45;68.96;101074.16;686077;28;115193;-70
2021/11/13 00:00:47;;;;;;;1027.95;960.03;;;;;;;5.47;69.03;101069.53;688795;28;45072;-70
2021/11/13 00:01:09;;;;;;;1028.97;961.03;;;;;;;5.47;69.03;101079.38;689283;28;22393;-70
2021/11/13 00:01:32;;;;;;;1024.68;956.95;;;;;;;5.48;69.10;101079.25;688272;28;44388;-69
2021/11/13 00:01:53;;;;;;;1009.28;942.10;;;;;;;5.48;68.96;101075.75;688002;28;69226;-70
2021/11/13 00:02:14;;;;;;;1019.03;951.63;;;;;;;5.47;68.95;101074.91;689289;28;22168;-70
2021/11/13 00:02:36;;;;;;;1029.50;961.60;;;;;;;5.48;68.96;101071.22;689787;28;22440;-70
2021/11/13 00:02:57;;;;;;;1017.58;950.13;;;;;;;5.48;69.01;101075.75;689529;28;22398;-70
2021/11/13 00:03:19;;;;;;;1020.03;952.50;;;;;;;5.50;68.99;101074.63;688853;28;46397;-69
2021/11/13 00:03:40;;;;;;;1037.43;969.17;;;;;;;5.50;69.12;101071.94;688268;28;46331;-70
2021/11/13 00:04:02;;;;;;;1024.85;957.20;;;;;;;5.49;68.92;101070.25;689584;28;22364;-70
2021/11/13 00:04:25;;;;;;;1029.07;961.20;;;;;;;5.51;68.92;101080.81;688772;28;44387;-70
2021/11/13 00:04:46;;;;;;;1011.72;944.63;;;;;;;5.46;68.76;101069.69;687850;28;69467;-70
2021/11/13 00:05:08;;;;;;;1008.22;941.33;;;;;;;5.47;68.73;101085.63;688457;28;22347;-69
2021/11/13 00:05:30;;;;;;;1005.60;938.83;;;;;;;5.47;68.86;101082.06;688365;28;46259;-70
2021/11/13 00:05:52;;;;;;;1007.58;940.58;;;;;;;5.47;68.96;101080.25;688922;28;45193;-70
2021/11/13 00:06:13;;;;;;;1001.45;934.67;;;;;;;5.49;68.91;101082.81;687851;28;48041;-70
2021/11/13 00:06:36;;;;;;;1004.00;937.15;;;;;;;5.48;68.99;101075.75;688005;28;69391;-70
2021/11/13 00:06:57;;;;;;;999.30;932.65;;;;;;;5.48;69.06;101076.56;689675;28;22483;-70
2021/11/13 00:07:19;;;;;;;983.22;917.15;;;;;;;5.49;68.99;101080.13;689352;28;21568;-70
2021/11/13 00:07:40;;;;;;;993.58;926.92;;;;;;;5.47;68.81;101079.38;687283;28;69272;-70
2021/11/13 00:08:03;;;;;;;1007.53;940.45;;;;;;;5.45;68.80;101076.84;689410;28;23448;-70
2021/11/13 00:08:25;;;;;;;999.78;933.08;;;;;;;5.44;68.80;101077.84;688922;28;45306;-69
2021/11/13 00:08:47;;;;;;;1005.22;938.38;;;;;;;5.44;68.59;101072.50;687154;28;87442;-70
2021/11/13 00:09:10;;;;;;;997.95;931.38;;;;;;;5.43;68.67;101075.31;690377;28;4800;-69
2021/11/13 00:09:31;;;;;;;995.00;928.45;;;;;;;5.44;68.93;101069.81;688055;28;63310;-70
2021/11/13 00:09:53;;;;;;;1009.20;942.13;;;;;;;5.45;69.05;101067.97;689350;28;22108;-70
2021/11/13 00:10:16;;;;;;;1002.72;935.78;;;;;;;5.45;68.96;101070.66;688234;28;45117;-70
2021/11/13 00:10:38;;;;;;;999.83;933.17;;;;;;;5.47;68.86;101068.69;687682;28;67335;-70
2021/11/13 00:10:59;;;;;;;996.85;930.35;;;;;;;5.45;68.68;101074.16;688469;28;46385;-70
2021/11/13 00:11:21;;;;;;;1004.90;938.10;;;;;;;5.39;68.68;101064.84;689505;28;23507;-70
2021/11/13 00:11:43;;;;;;;992.17;925.83;;;;;;;5.35;68.70;101063.44;689712;28;20483;-70
2021/11/13 00:12:05;;;;;;;995.95;929.45;;;;;;;5.34;68.53;101058.19;688564;28;44260;-70
2021/11/13 00:12:27;;;;;;;994.15;927.75;;;;;;;5.34;68.64;101075.09;692625;28;1581;-70
2021/11/13 00:12:51;;;;;;;991.92;925.53;;;;;;;5.33;68.80;101070.75;692294;28;22326;-70
2021/11/13 00:13:19;;;;;;;985.25;919.10;;;;;;;5.33;69.12;101070.75;687740;28;137885;-70
2021/11/13 00:13:40;;;;;;;1006.10;939.15;;;;;;;5.32;69.14;101069.06;689427;28;92308;-70
2021/11/13 00:14:02;;;;;;;1000.67;933.97;;;;;;;5.34;69.29;101068.91;691622;28;21414;-69
2021/11/13 00:14:25;;;;;;;1009.42;942.45;;;;;;;5.34;69.20;101067.06;689773;28;44329;-70
2021/11/13 00:14:46;;;;;;;1012.22;945.10;;;;;;;5.36;69.09;101073.16;688985;28;46399;-70
2021/11/13 00:15:09;;;;;;;1016.38;949.13;;;;;;;5.34;68.89;101072.44;688260;28;44389;-70
2021/11/13 00:15:30;;;;;;;1006.28;939.40;;;;;;;5.30;68.83;101063.00;688046;28;44357;-70
2021/11/13 00:15:52;;;;;;;995.28;928.75;;;;;;;5.30;68.69;101072.84;689534;28;23489;-70
2021/11/13 00:16:13;;;;;;;1006.85;939.92;;;;;;;5.29;68.89;101066.63;687089;28;70784;-70
2021/11/13 00:16:34;;;;;;;999.58;933.03;;;;;;;5.27;68.97;101068.63;689580;28;21518;-70
2021/11/13 00:16:55;;;;;;;1005.42;938.63;;;;;;;5.26;68.90;101061.56;689486;28;22346;-70
2021/11/13 00:17:17;;;;;;;1012.72;945.47;;;;;;;5.28;69.04;101059.56;689176;28;22388;-70
2021/11/13 00:17:39;;;;;;;1021.92;954.25;;;;;;;5.29;69.27;101063.13;689156;28;22383;-70
2021/11/13 00:18:00;;;;;;;1033.63;965.47;;;;;;;5.27;69.07;101063.25;687733;28;69881;-70
2021/11/13 00:18:21;;;;;;;1031.35;963.30;;;;;;;5.24;69.07;101061.69;689736;28;23706;-70
2021/11/13 00:18:42;;;;;;;1031.65;963.60;;;;;;;5.22;68.93;101054.78;689740;28;22408;-69
2021/11/13 00:19:04;;;;;;;1031.32;963.28;;;;;;;5.21;69.05;101050.41;689405;28;21556;-70
2021/11/13 00:19:29;;;;;;;1029.45;961.50;;;;;;;5.20;69.28;101056.72;688947;28;46737;-70
2021/11/13 00:19:50;;;;;;;1022.95;955.28;;;;;;;5.23;69.31;101053.78;686244;28;114947;-69
2021/11/13 00:20:11;;;;;;;1027.40;959.53;;;;;;;5.25;69.25;101054.53;689357;28;21105;-69
2021/11/13 00:20:33;;;;;;;1023.28;955.60;;;;;;;5.24;69.27;101052.81;689584;28;22416;-70
2021/11/13 00:20:54;;;;;;;1018.58;951.08;;;;;;;5.24;69.38;101061.69;688491;28;46666;-69
2021/11/13 00:21:15;;;;;;;1025.00;957.30;;;;;;;5.23;69.36;101056.47;689570;28;21518;-70
2021/11/13 00:21:37;;;;;;;1029.13;961.17;;;;;;;5.23;69.36;101057.34;688960;28;46340;-70
2021/11/13 00:21:59;;;;;;;1027.07;959.25;;;;;;;5.27;69.40;101052.53;689696;28;22384;-70
2021/11/13 00:22:24;;;;;;;1026.60;958.83;;;;;;;5.29;69.44;101052.41;685293;28;138130;-70
2021/11/13 00:22:45;;;;;;;1000.60;934.00;;;;;;;5.26;69.61;101050.84;689454;28;22264;-70
2021/11/13 00:23:06;;;;;;;995.20;928.83;;;;;;;5.29;69.31;101050.56;689389;28;21528;-70
2021/11/13 00:23:28;;;;;;;997.55;931.03;;;;;;;5.33;69.36;101049.31;688802;28;41063;-70
2021/11/13 00:23:49;;;;;;;1003.38;936.55;;;;;;;5.34;69.43;101052.84;688148;28;44377;-70
2021/11/13 00:24:10;;;;;;;1000.58;933.92;;;;;;;5.36;69.35;101051.75;689381;28;23454;-69
2021/11/13 00:24:31;;;;;;;981.63;915.58;;;;;;;5.38;69.32;101044.41;689573;28;22411;-70
2021/11/13 00:24:53;;;;;;;994.08;927.60;;;;;;;5.40;69.36;101049.63;689261;28;23484;-70
2021/11/13 00:25:15;;;;;;;996.88;930.30;;;;;;;5.42;69.35;101044.97;688220;28;46330;-70
2021/11/13 00:25:36;;;;;;;998.85;932.25;;;;;;;5.45;69.31;101041.19;689356;28;23404;-70
2021/11/13 00:25:58;;;;;;;1005.83;938.95;;;;;;;5.47;69.14;101048.13;688459;28;46697;-69
2021/11/13 00:26:22;;;;;;;1007.45;940.47;;;;;;;5.47;69.20;101040.06;687796;28;69398;-71
2021/11/13 00:26:43;;;;;;;1011.55;944.38;;;;;;;5.50;69.12;101039.81;688875;28;44381;-70
2021/11/13 00:27:04;;;;;;;990.70;924.33;;;;;;;5.52;69.17;101042.34;689628;28;22388;-70
2021/11/13 00:27:25;;;;;;;998.95;932.25;;;;;;;5.55;68.95;101045.59;689081;28;22532;-70
2021/11/13 00:27:46;;;;;;;1007.53;940.38;;;;;;;5.57;68.93;101046.28;686330;28;23488;-70
2021/11/13 00:28:08;;;;;;;993.10;926.58;;;;;;;5.58;68.81;101042.63;686860;28;22390;-70
2021/11/13 00:28:31;;;;;;;998.27;931.67;;;;;;;5.59;68.75;101047.03;683749;28;92471;-70
2021/11/13 00:28:52;;;;;;;979.55;913.67;;;;;;;5.60;68.91;101048.69;685696;28;46474;-70
2021/11/13 00:29:13;;;;;;;961.25;896.03;;;;;;;5.62;68.77;101056.59;687501;28;21288;-69
2021/11/13 00:29:35;;;;;;;961.70;896.33;;;;;;;5.64;68.68;101059.97;689446;28;21533;-70
2021/11/13 00:29:56;;;;;;;937.60;873.10;;;;;;;5.64;68.56;101061.81;688768;28;45237;-69
2021/11/13 00:30:17;;;;;;;926.67;862.58;;;;;;;5.63;68.37;101054.75;688367;28;45337;-70
2021/11/13 00:30:41;;;;;;;933.67;869.22;;;;;;;5.62;68.20;101064.63;689421;28;22403;-70
2021/11/13 00:31:03;;;;;;;929.55;865.30;;;;;;;5.59;68.26;101055.06;688052;28;52406;-70
2021/11/13 00:31:24;;;;;;;910.72;847.08;;;;;;;5.60;68.25;101063.94;689744;28;22390;-70
2021/11/13 00:31:45;;;;;;;937.83;873.28;;;;;;;5.62;68.44;101058.44;689584;28;23258;-70
2021/11/13 00:32:09;;;;;;;972.90;907.22;;;;;;;5.58;68.23;101055.19;687731;28;70143;-71
2021/11/13 00:32:31;;;;;;;951.30;886.28;;;;;;;5.54;68.29;101059.97;688351;28;69092;-70
2021/11/13 00:32:52;;;;;;;926.95;862.80;;;;;;;5.53;68.25;101055.59;689659;28;22401;-70
2021/11/13 00:33:13;;;;;;;912.60;848.95;;;;;;;5.50;68.29;101052.34;689672;28;22395;-69
2021/11/13 00:33:35;;;;;;;914.13;850.38;;;;;;;5.48;68.26;101044.44;688893;28;45382;-70
2021/11/13 00:33:56;;;;;;;933.30;868.88;;;;;;;5.48;68.50;101046.28;688270;28;44398;-70
2021/11/13 00:34:18;;;;;;;924.97;860.90;;;;;;;5.46;68.38;101045.56;689433;28;21526;-70
2021/11/13 00:34:40;;;;;;;913.67;849.97;;;;;;;5.43;68.31;101041.31;689328;28;22405;-70
2021/11/13 00:35:03;;;;;;;913.50;849.78;;;;;;;5.40;68.21;101042.44;687585;28;70226;-69
2021/11/13 00:35:24;;;;;;;917.42;853.63;;;;;;;5.39;68.38;101040.75;689310;28;34129;-71
2021/11/13 00:35:45;;;;;;;911.60;847.88;;;;;;;5.40;68.66;101041.59;690018;28;22467;-70
2021/11/13 00:36:06;;;;;;;914.50;850.75;;;;;;;5.37;68.47;101041.88;690307;28;10978;-72
2021/11/13 00:36:28;;;;;;;921.83;857.88;;;;;;;5.33;68.72;101046.66;690191;28;22413;-71
2021/11/13 00:36:50;;;;;;;908.95;845.30;;;;;;;5.29;68.29;101047.88;688109;28;69432;-70
2021/11/13 00:37:11;;;;;;;924.30;860.20;;;;;;;5.32;68.48;101046.78;689886;28;21491;-70
2021/11/13 00:37:32;;;;;;;963.70;898.35;;;;;;;5.30;68.57;101048.72;689807;28;22380;-70
2021/11/13 00:37:54;;;;;;;967.08;901.53;;;;;;;5.27;68.59;101035.63;689483;28;23422;-70
2021/11/13 00:38:15;;;;;;;924.03;859.97;;;;;;;5.29;69.05;101047.88;689448;28;46278;-71
2021/11/13 00:38:36;;;;;;;903.17;839.78;;;;;;;5.28;69.01;101038.16;690138;28;21518;-71
2021/11/13 00:38:57;;;;;;;929.40;865.13;;;;;;;5.30;68.99;101038.00;689880;28;22546;-70
2021/11/13 00:39:19;;;;;;;960.15;894.85;;;;;;;5.30;69.08;101041.56;689973;28;23517;-70
2021/11/13 00:39:41;;;;;;;916.97;853.10;;;;;;;5.29;69.27;101034.50;689927;28;23889;-70
2021/11/13 00:40:03;;;;;;;910.30;846.65;;;;;;;5.35;69.19;101043.84;687749;28;67547;-71
2021/11/13 00:40:26;;;;;;;922.33;858.33;;;;;;;5.36;69.23;101037.47;687668;28;67226;-72
2021/11/13 00:40:47;;;;;;;934.40;869.97;;;;;;;5.37;69.16;101042.69;689216;28;44410;-70
2021/11/13 00:41:09;;;;;;;957.22;891.97;;;;;;;5.31;68.72;101035.19;689797;28;22257;-70
2021/11/13 00:41:31;;;;;;;929.85;865.63;;;;;;;5.35;69.00;101044.69;689310;28;44378;-71
2021/11/13 00:41:53;;;;;;;932.00;867.67;;;;;;;5.34;68.95;101042.97;688527;28;46346;-71
2021/11/13 00:42:14;;;;;;;934.88;870.47;;;;;;;5.32;68.95;101034.22;689113;28;44343;-71
2021/11/13 00:42:36;;;;;;;944.47;879.65;;;;;;;5.36;68.90;101040.16;689557;28;22402;-70
2021/11/13 00:42:58;;;;;;;939.70;875.03;;;;;;;5.34;68.96;101034.94;689028;28;45285;-70
2021/11/13 00:43:20;;;;;;;948.05;883.00;;;;;;;5.32;68.97;101039.59;689406;28;45221;-71
2021/11/13 00:43:41;;;;;;;967.88;902.10;;;;;;;5.34;68.92;101036.78;687961;28;45255;-71
2021/11/13 00:44:03;;;;;;;999.88;933.00;;;;;;;5.33;69.14;101032.38;689622;28;22391;-71
2021/11/13 00:44:25;;;;;;;971.22;905.47;;;;;;;5.34;69.14;101040.28;689275;28;45165;-70
2021/11/13 00:44:48;;;;;;;948.03;883.00;;;;;;;5.34;69.10;101042.97;689365;28;43776;-70
2021/11/13 00:45:09;;;;;;;949.67;884.55;;;;;;;5.33;69.14;101035.94;687866;28;67212;-71
2021/11/13 00:45:32;;;;;;;954.90;889.65;;;;;;;5.34;69.05;101040.28;689735;28;23428;-71
2021/11/13 00:45:53;;;;;;;952.10;886.88;;;;;;;5.36;69.04;101041.03;688529;28;67473;-70
2021/11/13 00:46:14;;;;;;;960.15;894.75;;;;;;;5.35;69.15;101039.31;688921;28;44464;-70
2021/11/13 00:46:36;;;;;;;960.15;894.78;;;;;;;5.35;69.08;101042.00;691522;28;46233;-70
2021/11/13 00:46:57;;;;;;;996.47;929.83;;;;;;;5.36;69.18;101043.69;692382;28;21204;-70
2021/11/13 00:47:20;;;;;;;971.30;905.45;;;;;;;5.35;69.14;101038.47;688870;28;43636;-71
2021/11/13 00:47:41;;;;;;;961.90;896.38;;;;;;;5.33;69.01;101033.25;688183;28;44362;-70
2021/11/13 00:48:02;;;;;;;954.45;889.15;;;;;;;5.35;69.11;101041.16;690020;28;22392;-70
2021/11/13 00:48:23;;;;;;;987.95;921.63;;;;;;;5.36;69.13;101043.69;688752;28;45384;-70
2021/11/13 00:48:46;;;;;;;972.83;906.95;;;;;;;5.38;69.17;101033.69;690044;28;22417;-71
2021/11/13 00:49:08;;;;;;;961.33;895.88;;;;;;;5.40;69.32;101038.91;689176;28;46366;-70
2021/11/13 00:49:29;;;;;;;958.35;893.05;;;;;;;5.42;69.15;101036.94;689394;28;46305;-71
2021/11/13 00:49:52;;;;;;;959.97;894.65;;;;;;;5.46;69.29;101033.00;689093;28;44150;-71
2021/11/13 00:50:14;;;;;;;926.10;861.95;;;;;;;5.48;69.27;101027.50;688865;28;44376;-70
2021/11/13 00:50:36;;;;;;;937.95;873.47;;;;;;;5.47;69.15;101025.81;688109;28;67238;-70
2021/11/13 00:50:57;;;;;;;967.80;902.28;;;;;;;5.48;68.99;101019.47;689467;28;22400;-71
2021/11/13 00:51:18;;;;;;;964.45;899.08;;;;;;;5.48;68.64;101031.03;689398;28;45286;-69
2021/11/13 00:51:40;;;;;;;934.78;870.38;;;;;;;5.47;68.73;101036.53;690045;28;22384;-70
2021/11/13 00:52:02;;;;;;;935.40;871.00;;;;;;;5.47;68.77;101032.03;690233;28;21536;-71
2021/11/13 00:52:23;;;;;;;925.05;860.92;;;;;;;5.51;68.53;101032.59;688590;28;69453;-71
2021/11/13 00:52:44;;;;;;;933.47;869.10;;;;;;;5.51;68.62;101028.09;689998;28;21544;-70
2021/11/13 00:53:05;;;;;;;949.80;884.90;;;;;;;5.52;68.90;101035.16;689890;28;22344;-72
2021/11/13 00:53:27;;;;;;;967.30;901.72;;;;;;;5.50;68.75;101030.91;689499;28;23504;-71
2021/11/13 00:53:49;;;;;;;964.80;899.33;;;;;;;5.53;68.66;101027.94;688406;28;69367;-71
2021/11/13 00:54:10;;;;;;;934.58;870.17;;;;;;;5.53;68.81;101035.97;690117;28;22444;-70
2021/11/13 00:54:33;;;;;;;919.45;855.60;;;;;;;5.54;68.54;101033.16;690082;28;23238;-71
2021/11/13 00:54:54;;;;;;;920.22;856.17;;;;;;;5.55;68.71;101031.34;687992;28;68804;-71
2021/11/13 00:55:18;;;;;;;945.42;880.58;;;;;;;5.56;68.66;101030.34;689655;28;22380;-71
2021/11/13 00:55:39;;;;;;;954.47;889.30;;;;;;;5.55;68.85;101028.69;686546;28;115373;-72
2021/11/13 00:56:01;;;;;;;929.22;864.92;;;;;;;5.58;68.68;101034.59;689608;28;22406;-71
2021/11/13 00:56:22;;;;;;;913.38;849.65;;;;;;;5.58;68.58;101023.03;690052;28;21298;-71
2021/11/13 00:56:44;;;;;;;915.05;851.28;;;;;;;5.62;68.75;101035.16;690034;28;23440;-71
2021/11/13 00:57:07;;;;;;;925.30;861.15;;;;;;;5.65;68.57;101034.06;689300;28;46340;-71
2021/11/13 00:57:28;;;;;;;950.45;885.47;;;;;;;5.64;68.57;101035.88;687058;28;92454;-71
2021/11/13 00:57:49;;;;;;;940.55;875.80;;;;;;;5.64;68.30;101032.34;689516;28;22401;-70
2021/11/13 00:58:11;;;;;;;933.33;868.90;;;;;;;5.63;68.18;101028.81;690018;28;22380;-71
2021/11/13 00:58:34;;;;;;;919.13;855.10;;;;;;;5.65;68.08;101026.84;688906;28;44395;-71
2021/11/13 00:58:56;;;;;;;919.40;855.47;;;;;;;5.64;68.39;101018.94;688128;28;69438;-70
2021/11/13 00:59:17;;;;;;;915.77;851.97;;;;;;;5.64;68.44;101019.78;692550;28;22181;-71
2021/11/13 00:59:39;;;;;;;924.83;860.75;;;;;;;5.65;68.31;101017.97;692918;28;1033;-72
2021/11/13 01:00:00;;;;;;;925.17;861.10;;;;;;;5.64;68.41;101016.28;691037;28;44381;-70
2021/11/13 01:00:22;;;;;;;927.95;863.70;;;;;;;5.67;68.10;101021.34;693021;28;1560;-70
2021/11/13 01:00:43;;;;;;;925.65;861.50;;;;;;;5.66;68.34;101022.31;691504;28;45234;-72
2021/11/13 01:01:05;;;;;;;931.72;867.38;;;;;;;5.68;68.26;101023.06;691797;28;21646;-70
2021/11/13 01:01:26;;;;;;;961.38;896.00;;;;;;;5.65;68.29;101015.28;689665;28;22102;-71
2021/11/13 01:01:47;;;;;;;961.80;896.35;;;;;;;5.68;68.28;101031.94;689483;28;22507;-71
2021/11/13 01:02:09;;;;;;;928.75;864.58;;;;;;;5.68;68.27;101025.75;689911;28;21653;-71
2021/11/13 01:02:31;;;;;;;924.47;860.40;;;;;;;5.68;67.98;101031.94;689839;28;23317;-71
2021/11/13 01:02:52;;;;;;;927.35;863.22;;;;;;;5.68;68.07;101026.56;689226;28;45343;-70
2021/11/13 01:03:13;;;;;;;949.10;884.30;;;;;;;5.67;68.28;101018.66;689349;28;45105;-71
2021/11/13 01:03:34;;;;;;;937.15;872.65;;;;;;;5.73;68.12;101023.47;689847;28;23469;-70
2021/11/13 01:03:57;;;;;;;945.65;880.88;;;;;;;5.72;67.96;101028.00;689928;28;21528;-70
2021/11/13 01:04:18;;;;;;;921.17;857.28;;;;;;;5.70;67.86;101026.44;688204;28;69550;-71
2021/11/13 01:04:39;;;;;;;925.97;861.83;;;;;;;5.68;67.75;101023.06;690100;28;21528;-70
2021/11/13 01:05:03;;;;;;;910.38;846.78;;;;;;;5.67;67.77;101026.72;689580;28;22163;-72
2021/11/13 01:05:25;;;;;;;939.50;874.90;;;;;;;5.63;67.95;101019.91;689136;28;40941;-70
2021/11/13 01:05:47;;;;;;;942.42;877.70;;;;;;;5.66;68.10;101025.00;689862;28;23417;-70
2021/11/13 01:06:11;;;;;;;939.08;874.58;;;;;;;5.65;68.13;101026.84;686409;28;116249;-70
2021/11/13 01:06:32;;;;;;;943.90;879.15;;;;;;;5.65;68.05;101023.34;690493;28;1649;-70
2021/11/13 01:06:53;;;;;;;928.33;864.17;;;;;;;5.62;68.07;101024.44;689671;28;22482;-69
2021/11/13 01:07:15;;;;;;;929.20;865.10;;;;;;;5.62;68.02;101026.28;689855;28;21646;-70
2021/11/13 01:07:36;;;;;;;953.90;888.85;;;;;;;5.62;67.99;101020.94;688819;28;45342;-70
2021/11/13 01:07:57;;;;;;;923.60;859.40;;;;;;;5.59;68.14;101030.94;688748;28;43763;-71
2021/11/13 01:08:18;;;;;;;929.35;865.05;;;;;;;5.56;68.21;101022.31;690068;28;22506;-71
2021/11/13 01:08:41;;;;;;;925.47;861.22;;;;;;;5.55;68.10;101023.31;692653;28;22453;-70
2021/11/13 01:09:03;;;;;;;913.80;850.08;;;;;;;5.56;68.04;101025.84;690867;28;69347;-71
2021/11/13 01:09:25;;;;;;;924.05;860.03;;;;;;;5.56;68.28;101031.22;693057;28;1466;-70
2021/11/13 01:09:51;;;;;;;938.45;873.92;;;;;;;5.55;68.45;101024.16;687762;28;114715;-70
2021/11/13 01:10:16;;;;;;;940.35;875.72;;;;;;;5.56;68.25;101028.53;688177;28;44343;-70
2021/11/13 01:10:38;;;;;;;929.75;865.53;;;;;;;5.56;68.38;101033.03;685873;28;138054;-71
2021/11/13 01:10:59;;;;;;;938.70;874.20;;;;;;;5.53;68.38;101031.50;689059;28;44357;-71
2021/11/13 01:11:20;;;;;;;937.20;872.78;;;;;;;5.52;68.25;101027.09;690098;28;23529;-70
2021/11/13 01:11:41;;;;;;;934.67;870.25;;;;;;;5.52;68.37;101039.66;689868;28;21518;-71
2021/11/13 01:12:04;;;;;;;914.10;850.40;;;;;;;5.49;68.15;101031.91;689306;28;46356;-70
2021/11/13 01:12:25;;;;;;;916.97;853.17;;;;;;;5.51;68.22;101029.94;688438;28;67499;-71
2021/11/13 01:12:48;;;;;;;917.58;853.72;;;;;;;5.48;68.39;101031.03;690109;28;22386;-70
2021/11/13 01:13:09;;;;;;;934.95;870.63;;;;;;;5.49;68.28;101038.09;689110;28;44387;-70
2021/11/13 01:13:32;;;;;;;929.85;865.67;;;;;;;5.48;68.52;101036.38;691085;28;22260;-70
2021/11/13 01:13:53;;;;;;;943.40;878.67;;;;;;;5.49;68.36;101037.25;689557;28;69491;-70
2021/11/13 01:14:14;;;;;;;935.72;871.28;;;;;;;5.48;68.58;101028.34;690577;28;44370;-70
2021/11/13 01:14:39;;;;;;;946.17;881.38;;;;;;;5.50;68.57;101038.94;691266;28;20951;-70
2021/11/13 01:15:02;;;;;;;924.45;860.33;;;;;;;5.50;68.50;101030.91;687219;28;115106;-71
2021/11/13 01:15:23;;;;;;;920.20;856.20;;;;;;;5.49;68.53;101029.22;690860;28;46438;-70
2021/11/13 01:15:44;;;;;;;913.08;849.35;;;;;;;5.46;68.58;101029.50;690626;28;45228;-71
2021/11/13 01:16:05;;;;;;;930.20;865.92;;;;;;;5.44;68.42;101031.44;689725;28;23748;-70
2021/11/13 01:16:27;;;;;;;922.42;858.45;;;;;;;5.43;68.38;101027.09;689972;28;22401;-70
2021/11/13 01:16:48;;;;;;;939.30;874.75;;;;;;;5.41;68.37;101025.38;688797;28;46247;-70
2021/11/13 01:17:12;;;;;;;931.33;867.08;;;;;;;5.40;68.34;101030.88;689912;28;23538;-71
2021/11/13 01:17:36;;;;;;;928.00;863.88;;;;;;;5.40;68.57;101026.34;685247;28;161796;-71
2021/11/13 01:17:58;;;;;;;933.13;868.65;;;;;;;5.41;68.49;101035.25;688979;28;46843;-70
2021/11/13 01:18:19;;;;;;;919.45;855.58;;;;;;;5.38;68.85;101033.69;688374;28;66319;-70
2021/11/13 01:18:41;;;;;;;924.63;860.60;;;;;;;5.38;68.65;101030.19;689973;28;23469;-70
2021/11/13 01:19:04;;;;;;;931.15;866.92;;;;;;;5.41;68.91;101029.91;688278;28;68310;-70
2021/11/13 01:19:26;;;;;;;929.63;865.42;;;;;;;5.41;68.88;101035.25;689112;28;45254;-72
2021/11/13 01:19:47;;;;;;;933.15;868.75;;;;;;;5.41;68.94;101025.38;689166;28;43727;-70
2021/11/13 01:20:13;;;;;;;929.97;865.78;;;;;;;5.39;68.79;101029.16;689498;28;23502;-70
2021/11/13 01:20:36;;;;;;;903.83;840.33;;;;;;;5.41;68.72;101020.03;685911;28;137965;-70
2021/11/13 01:20:57;;;;;;;943.63;878.88;;;;;;;5.44;68.74;101016.25;688098;28;59278;-70
2021/11/13 01:21:19;;;;;;;953.42;888.38;;;;;;;5.45;68.71;101023.28;691830;28;22536;-70
2021/11/13 01:21:40;;;;;;;929.90;865.67;;;;;;;5.44;68.72;101018.91;692139;28;23549;-71
2021/11/13 01:22:04;;;;;;;929.97;865.75;;;;;;;5.44;68.69;101018.91;690258;28;92132;-70
2021/11/13 01:22:26;;;;;;;915.92;852.20;;;;;;;5.44;68.72;101016.25;691465;28;46721;-71
2021/11/13 01:22:48;;;;;;;920.17;856.28;;;;;;;5.46;68.70;101018.78;691619;28;44168;-70
2021/11/13 01:23:09;;;;;;;928.78;864.65;;;;;;;5.45;68.96;101015.22;691335;28;23486;-70
2021/11/13 01:23:30;;;;;;;922.08;858.05;;;;;;;5.48;68.68;101022.16;689268;28;46115;-70
2021/11/13 01:23:51;;;;;;;932.67;868.35;;;;;;;5.47;68.88;101020.44;690077;28;22265;-70
2021/11/13 01:24:15;;;;;;;951.13;886.15;;;;;;;5.45;68.82;101027.78;688862;28;69430;-70
2021/11/13 01:24:36;;;;;;;939.55;874.92;;;;;;;5.45;68.70;101031.31;688885;28;46150;-71
2021/11/13 01:24:57;;;;;;;941.40;876.78;;;;;;;5.42;68.74;101026.22;689833;28;21510;-71
2021/11/13 01:25:19;;;;;;;934.70;870.33;;;;;;;5.39;68.68;101032.72;688403;28;46350;-71
2021/11/13 01:25:42;;;;;;;921.08;857.13;;;;;;;5.37;68.55;101040.03;689602;28;22193;-70
2021/11/13 01:26:07;;;;;;;935.95;871.58;;;;;;;5.37;68.68;101034.66;684612;28;137494;-70
2021/11/13 01:26:29;;;;;;;930.95;866.75;;;;;;;5.36;68.60;101037.47;689100;28;46136;-70
2021/11/13 01:26:50;;;;;;;939.35;874.85;;;;;;;5.36;68.75;101030.31;689638;28;23450;-71
2021/11/13 01:27:12;;;;;;;936.78;872.25;;;;;;;5.33;68.74;101033.25;688852;28;44878;-71
2021/11/13 01:27:34;;;;;;;948.55;883.63;;;;;;;5.33;68.62;101030.59;689791;28;24197;-70
2021/11/13 01:27:55;;;;;;;940.50;875.70;;;;;;;5.33;68.87;101032.38;688405;28;45221;-70
2021/11/13 01:28:17;;;;;;;916.22;852.45;;;;;;;5.32;68.85;101026.19;688432;28;69375;-70
2021/11/13 01:28:38;;;;;;;941.30;876.63;;;;;;;5.35;68.88;101033.97;689966;28;22774;-70
2021/11/13 01:29:00;;;;;;;955.10;889.97;;;;;;;5.34;68.81;101026.91;689955;28;21527;-70
2021/11/13 01:29:21;;;;;;;938.03;873.53;;;;;;;5.36;68.86;101038.34;688978;28;46498;-70
2021/11/13 01:29:43;;;;;;;929.97;865.78;;;;;;;5.38;68.85;101024.81;689458;28;22360;-70
2021/11/13 01:30:06;;;;;;;933.95;869.60;;;;;;;5.36;68.83;101030.31;689500;28;21503;-71
2021/11/13 01:30:27;;;;;;;937.50;873.03;;;;;;;5.36;68.79;101032.13;687369;28;92309;-70
2021/11/13 01:30:49;;;;;;;937.97;873.53;;;;;;;5.39;68.82;101037.19;689616;28;21558;-70
2021/11/13 01:31:10;;;;;;;944.28;879.58;;;;;;;5.38;68.87;101028.34;689572;28;22387;-71
2021/11/13 01:31:32;;;;;;;943.88;879.20;;;;;;;5.37;68.99;101026.63;688847;28;47231;-70
2021/11/13 01:31:53;;;;;;;926.45;862.38;;;;;;;5.38;68.84;101036.38;689032;28;46671;-70
2021/11/13 01:32:16;;;;;;;915.22;851.53;;;;;;;5.40;68.85;101033.56;690903;28;1586;-71
2021/11/13 01:32:38;;;;;;;913.97;850.22;;;;;;;5.41;68.76;101032.59;689285;28;44436;-70
2021/11/13 01:32:59;;;;;;;906.70;843.10;;;;;;;5.40;68.77;101030.88;688866;28;46341;-70
2021/11/13 01:33:20;;;;;;;926.83;862.70;;;;;;;5.39;68.88;101032.72;689945;28;22385;-70
2021/11/13 01:33:42;;;;;;;923.45;859.40;;;;;;;5.42;68.90;101031.56;689896;28;23503;-71
2021/11/13 01:34:04;;;;;;;919.40;855.40;;;;;;;5.42;68.94;101031.56;688188;28;69399;-71
2021/11/13 01:34:26;;;;;;;925.22;861.08;;;;;;;5.43;68.78;101025.25;690069;28;13034;-71
2021/11/13 01:34:47;;;;;;;927.08;862.92;;;;;;;5.43;69.07;101030.59;689949;28;18638;-70
2021/11/13 01:35:10;;;;;;;922.72;858.70;;;;;;;5.41;68.79;101024.53;689429;28;21651;-72
2021/11/13 01:35:32;;;;;;;928.28;863.95;;;;;;;5.39;68.79;101022.00;689568;28;13465;-71
2021/11/13 01:35:54;;;;;;;935.92;871.45;;;;;;;5.36;68.52;101024.94;688708;28;48007;-70
2021/11/13 01:36:15;;;;;;;945.45;880.72;;;;;;;5.35;68.43;101023.25;689628;28;23475;-70
2021/11/13 01:36:41;;;;;;;941.47;876.78;;;;;;;5.32;68.71;101020.84;689902;28;22379;-71
2021/11/13 01:37:08;;;;;;;927.50;862.85;;;;;;;5.34;68.63;101020.69;688153;28;137978;-70
2021/11/13 01:37:31;;;;;;;925.25;860.70;;;;;;;5.33;68.80;101025.22;685555;28;137449;-70
2021/11/13 01:37:52;;;;;;;926.00;861.72;;;;;;;5.32;69.12;101020.84;687842;28;46463;-70
2021/11/13 01:38:13;;;;;;;936.65;872.20;;;;;;;5.34;69.09;101024.22;688745;28;46338;-70
2021/11/13 01:38:39;;;;;;;928.38;864.15;;;;;;;5.32;69.02;101020.00;687166;28;92160;-70
2021/11/13 01:39:00;;;;;;;917.42;853.58;;;;;;;5.33;69.10;101017.19;688129;28;68283;-71